Big Bear Station Historical Data
Daily Summary for May 23, 2019 Units:  Both    English   Metric
Next Day »
Daily Weekly Monthly Yearly Custom
  High: Low: Average:
Temperature: 43.3 °F /  6.3 °C 31.8 °F /  -0.1 °C 35.6 °F /  2 °C
Dew Point: 40.2 °F /  4.6 °C 31.4 °F /  -0.3 °C 34.8 °F /  1.6 °C
Humidity: 99% 88% 97%
Wind Speed: 5.8mph /  9.3km/h - 1mph /  1.6km/h
Wind Gust: -999mph /  -1607.7km/h - -
Wind- - WSW
Pressure: 23.44 in /  793.7 hPa 23.23 in /  786.6 hPa -
Precipitation: 0.32 in /  8.13 mm    
Historical Graphs
 
 
Tabular Data for May 23, 2019
Time Temperature Dew Point Pressure Wind Wind Speed Wind Gust Humidity Rainfall Rate (Hourly)
00:03 32.4 °F /  0.2 °C 31.4 °F /  -0.3 °C 23.24in /  786.9hPa Calm   -999mph /  -1607.7km/h 96% 0.00in /  0mm
00:19 32.5 °F /  0.3 °C 31.5 °F /  -0.3 °C 23.24in /  786.9hPa Calm   -999mph /  -1607.7km/h 96% 0.00in /  0mm
00:34 32.5 °F /  0.3 °C 31.5 °F /  -0.3 °C 23.24in /  786.9hPa Calm   -999mph /  -1607.7km/h 96% 0.00in /  0mm
00:49 32.5 °F /  0.3 °C 31.5 °F /  -0.3 °C 23.24in /  786.9hPa Calm   -999mph /  -1607.7km/h 96% 0.00in /  0mm
01:04 32.4 °F /  0.2 °C 31.6 °F /  -0.2 °C 23.23in /  786.6hPa Calm   -999mph /  -1607.7km/h 97% 0.00in /  0mm
01:20 32.4 °F /  0.2 °C 31.6 °F /  -0.2 °C 23.24in /  786.9hPa West 2.2mph /  3.5km/h -999mph /  -1607.7km/h 97% 0.00in /  0mm
01:35 32.4 °F /  0.2 °C 31.9 °F /  -0.1 °C 23.24in /  786.9hPa NW 1.7mph /  2.7km/h -999mph /  -1607.7km/h 98% 0.00in /  0mm
01:51 32.4 °F /  0.2 °C 31.9 °F /  -0.1 °C 23.24in /  786.9hPa NNW 2.7mph /  4.3km/h -999mph /  -1607.7km/h 98% 0.00in /  0mm
02:06 32 °F /  0 °C 31.5 °F /  -0.3 °C 23.24in /  786.9hPa Calm   -999mph /  -1607.7km/h 98% 0.00in /  0mm
02:21 32 °F /  0 °C 31.5 °F /  -0.3 °C 23.24in /  786.9hPa Calm   -999mph /  -1607.7km/h 98% 0.00in /  0mm
02:36 32 °F /  0 °C 31.5 °F /  -0.3 °C 23.24in /  786.9hPa Calm   -999mph /  -1607.7km/h 98% 0.00in /  0mm
02:51 32 °F /  0 °C 31.5 °F /  -0.3 °C 23.24in /  786.9hPa Calm   -999mph /  -1607.7km/h 98% 0.00in /  0mm
03:07 32.2 °F /  0.1 °C 31.7 °F /  -0.2 °C 23.24in /  786.9hPa Calm   -999mph /  -1607.7km/h 98% 0.00in /  0mm
03:22 32.4 °F /  0.2 °C 31.9 °F /  -0.1 °C 23.24in /  786.9hPa Calm   -999mph /  -1607.7km/h 98% 0.00in /  0mm
03:37 32.4 °F /  0.2 °C 31.9 °F /  -0.1 °C 23.24in /  786.9hPa West 2.2mph /  3.5km/h -999mph /  -1607.7km/h 98% 0.00in /  0mm
03:52 32.2 °F /  0.1 °C 31.7 °F /  -0.2 °C 23.24in /  786.9hPa Calm   -999mph /  -1607.7km/h 98% 0.00in /  0mm
04:07 32.2 °F /  0.1 °C 31.7 °F /  -0.2 °C 23.24in /  786.9hPa Calm   -999mph /  -1607.7km/h 98% 0.00in /  0mm
04:23 32.4 °F /  0.2 °C 32.2 °F /  0.1 °C 23.24in /  786.9hPa NNE 1.1mph /  1.8km/h -999mph /  -1607.7km/h 99% 0.00in /  0mm
04:38 32.2 °F /  0.1 °C 32 °F /  0 °C 23.24in /  786.9hPa NNW 2.2mph /  3.5km/h -999mph /  -1607.7km/h 99% 0.00in /  0mm
04:53 32.2 °F /  0.1 °C 32 °F /  0 °C 23.25in /  787.2hPa WNW 2.2mph /  3.5km/h -999mph /  -1607.7km/h 99% 0.00in /  0mm
05:08 32 °F /  0 °C 31.8 °F /  -0.1 °C 23.25in /  787.2hPa NNW 4.2mph /  6.8km/h -999mph /  -1607.7km/h 99% 0.00in /  0mm
05:24 31.8 °F /  -0.1 °C 31.6 °F /  -0.2 °C 23.25in /  787.2hPa West 3.2mph /  5.1km/h -999mph /  -1607.7km/h 99% 0.00in /  0mm
05:39 32 °F /  0 °C 31.8 °F /  -0.1 °C 23.25in /  787.2hPa Calm   -999mph /  -1607.7km/h 99% 0.00in /  0mm
05:54 32 °F /  0 °C 31.8 °F /  -0.1 °C 23.26in /  787.6hPa Calm   -999mph /  -1607.7km/h 99% 0.00in /  0mm
06:09 32 °F /  0 °C 31.8 °F /  -0.1 °C 23.27in /  787.9hPa North 3.2mph /  5.1km/h -999mph /  -1607.7km/h 99% 0.00in /  0mm
06:24 32 °F /  0 °C 31.8 °F /  -0.1 °C 23.27in /  787.9hPa NW 5.3mph /  8.5km/h -999mph /  -1607.7km/h 99% 0.00in /  0mm
06:40 32 °F /  0 °C 31.8 °F /  -0.1 °C 23.27in /  787.9hPa NNW 2.7mph /  4.3km/h -999mph /  -1607.7km/h 99% 0.00in /  0mm
06:55 32.2 °F /  0.1 °C 32 °F /  0 °C 23.28in /  788.3hPa Calm   -999mph /  -1607.7km/h 99% 0.00in /  0mm
07:10 32.4 °F /  0.2 °C 32.2 °F /  0.1 °C 23.28in /  788.3hPa Calm   -999mph /  -1607.7km/h 99% 0.00in /  0mm
07:25 32.4 °F /  0.2 °C 32.2 °F /  0.1 °C 23.29in /  788.6hPa Calm   -999mph /  -1607.7km/h 99% 0.00in /  0mm
07:40 32.5 °F /  0.3 °C 32.3 °F /  0.2 °C 23.29in /  788.6hPa Calm   -999mph /  -1607.7km/h 99% 0.00in /  0mm
07:56 32.5 °F /  0.3 °C 32.3 °F /  0.2 °C 23.30in /  788.9hPa Calm   -999mph /  -1607.7km/h 99% 0.00in /  0mm
08:11 32.5 °F /  0.3 °C 32.3 °F /  0.2 °C 23.30in /  788.9hPa Calm   -999mph /  -1607.7km/h 99% 0.00in /  0mm
08:26 32.9 °F /  0.5 °C 32.6 °F /  0.3 °C 23.30in /  788.9hPa Calm   -999mph /  -1607.7km/h 99% 0.00in /  0mm
08:41 32.9 °F /  0.5 °C 32.6 °F /  0.3 °C 23.31in /  789.3hPa NE 5.8mph /  9.3km/h -999mph /  -1607.7km/h 99% 0.00in /  0mm
08:56 32.9 °F /  0.5 °C 32.6 °F /  0.3 °C 23.32in /  789.6hPa NNW 4.2mph /  6.8km/h -999mph /  -1607.7km/h 99% 0.00in /  0mm
09:12 33.3 °F /  0.7 °C 33 °F /  0.6 °C 23.32in /  789.6hPa Calm   -999mph /  -1607.7km/h 99% 0.00in /  0mm
09:27 33.3 °F /  0.7 °C 33 °F /  0.6 °C 23.33in /  790hPa NW 1.1mph /  1.8km/h -999mph /  -1607.7km/h 99% 0.00in /  0mm
09:42 33.8 °F /  1 °C 33.5 °F /  0.8 °C 23.33in /  790hPa ESE 1.7mph /  2.7km/h -999mph /  -1607.7km/h 99% 0.00in /  0mm
09:57 34 °F /  1.1 °C 33.7 °F /  0.9 °C 23.34in /  790.3hPa SSW 1.1mph /  1.8km/h -999mph /  -1607.7km/h 99% 0.00in /  0mm
10:12 34.3 °F /  1.3 °C 34 °F /  1.1 °C 23.34in /  790.3hPa Calm   -999mph /  -1607.7km/h 99% 0.00in /  0mm
10:28 34.9 °F /  1.6 °C 34.6 °F /  1.4 °C 23.35in /  790.6hPa Calm   -999mph /  -1607.7km/h 99% 0.00in /  0mm
10:43 35.6 °F /  2 °C 35.3 °F /  1.8 °C 23.35in /  790.6hPa SW 1.1mph /  1.8km/h -999mph /  -1607.7km/h 99% 0.00in /  0mm
10:58 36 °F /  2.2 °C 35.7 °F /  2.1 °C 23.36in /  791hPa South 3.2mph /  5.1km/h -999mph /  -1607.7km/h 99% 0.00in /  0mm
11:13 36.7 °F /  2.6 °C 36.4 °F /  2.4 °C 23.36in /  791hPa Calm   -999mph /  -1607.7km/h 99% 0.00in /  0mm
11:29 36.3 °F /  2.4 °C 36 °F /  2.2 °C 23.37in /  791.3hPa NW 3.2mph /  5.1km/h -999mph /  -1607.7km/h 99% 0.00in /  0mm
11:44 36.3 °F /  2.4 °C 36 °F /  2.2 °C 23.37in /  791.3hPa SW 1.1mph /  1.8km/h -999mph /  -1607.7km/h 99% 0.00in /  0mm
11:59 36.3 °F /  2.4 °C 36 °F /  2.2 °C 23.37in /  791.3hPa ENE 1.1mph /  1.8km/h -999mph /  -1607.7km/h 99% 0.00in /  0mm
12:14 36.9 °F /  2.7 °C 36.6 °F /  2.6 °C 23.37in /  791.3hPa WNW 3.2mph /  5.1km/h -999mph /  -1607.7km/h 99% 0.00in /  0mm
12:29 36.7 °F /  2.6 °C 36.4 °F /  2.4 °C 23.38in /  791.6hPa Calm   -999mph /  -1607.7km/h 99% 0.00in /  0mm
12:45 37.2 °F /  2.9 °C 36.9 °F /  2.7 °C 23.38in /  791.6hPa Calm   -999mph /  -1607.7km/h 99% 0.00in /  0mm
13:00 38.1 °F /  3.4 °C 37.6 °F /  3.1 °C 23.38in /  791.6hPa ENE 4.7mph /  7.6km/h -999mph /  -1607.7km/h 98% 0.00in /  0mm
13:16 38.5 °F /  3.6 °C 37.7 °F /  3.2 °C 23.38in /  791.6hPa Calm   -999mph /  -1607.7km/h 97% 0.00in /  0mm
13:31 38.8 °F /  3.8 °C 38 °F /  3.3 °C 23.38in /  791.6hPa Calm   -999mph /  -1607.7km/h 97% 0.00in /  0mm
13:46 39 °F /  3.9 °C 38 °F /  3.3 °C 23.39in /  792hPa Calm   -999mph /  -1607.7km/h 96% 0.00in /  0mm
14:01 38.5 °F /  3.6 °C 37.5 °F /  3.1 °C 23.39in /  792hPa NW 2.7mph /  4.3km/h -999mph /  -1607.7km/h 96% 0.00in /  0mm
14:16 39.6 °F /  4.2 °C 38.3 °F /  3.5 °C 23.39in /  792hPa Calm   -999mph /  -1607.7km/h 95% 0.00in /  0mm
14:32 39.6 °F /  4.2 °C 38.3 °F /  3.5 °C 23.39in /  792hPa NW 3.7mph /  6km/h -999mph /  -1607.7km/h 95% 0.00in /  0mm
14:47 40.1 °F /  4.5 °C 38.8 °F /  3.8 °C 23.39in /  792hPa NW 2.7mph /  4.3km/h -999mph /  -1607.7km/h 95% 0.00in /  0mm
15:02 40.3 °F /  4.6 °C 38.7 °F /  3.7 °C 23.39in /  792hPa West 2.7mph /  4.3km/h -999mph /  -1607.7km/h 94% 0.00in /  0mm
15:17 40.8 °F /  4.9 °C 39.5 °F /  4.2 °C 23.39in /  792hPa NNW 2.2mph /  3.5km/h -999mph /  -1607.7km/h 95% 0.00in /  0mm
15:33 41.2 °F /  5.1 °C 39.6 °F /  4.2 °C 23.39in /  792hPa ESE 2.2mph /  3.5km/h -999mph /  -1607.7km/h 94% 0.00in /  0mm
15:48 41.5 °F /  5.3 °C 39.6 °F /  4.2 °C 23.39in /  792hPa WSW 2.7mph /  4.3km/h -999mph /  -1607.7km/h 93% 0.00in /  0mm
16:03 40.6 °F /  4.8 °C 39 °F /  3.9 °C 23.39in /  792hPa Calm   -999mph /  -1607.7km/h 94% 0.00in /  0mm
16:18 41.2 °F /  5.1 °C 39.9 °F /  4.4 °C 23.40in /  792.3hPa NNW 3.2mph /  5.1km/h -999mph /  -1607.7km/h 95% 0.00in /  0mm
16:34 41.7 °F /  5.4 °C 39.5 °F /  4.2 °C 23.40in /  792.3hPa NNW 4.7mph /  7.6km/h -999mph /  -1607.7km/h 92% 0.00in /  0mm
16:49 40.1 °F /  4.5 °C 38.2 °F /  3.4 °C 23.40in /  792.3hPa Calm   -999mph /  -1607.7km/h 93% 0.00in /  0mm
17:04 40.3 °F /  4.6 °C 38.7 °F /  3.7 °C 23.40in /  792.3hPa NW 3.7mph /  6km/h -999mph /  -1607.7km/h 94% 0.00in /  0mm
17:19 40.3 °F /  4.6 °C 37.9 °F /  3.3 °C 23.40in /  792.3hPa SSW 2.7mph /  4.3km/h -999mph /  -1607.7km/h 91% 0.00in /  0mm
17:34 41 °F /  5 °C 39.1 °F /  3.9 °C 23.40in /  792.3hPa Calm   -999mph /  -1607.7km/h 93% 0.00in /  0mm
17:50 43.2 °F /  6.2 °C 40.2 °F /  4.6 °C 23.40in /  792.3hPa Calm   -999mph /  -1607.7km/h 89% 0.00in /  0mm
18:05 41.7 °F /  5.4 °C 39.3 °F /  4.1 °C 23.40in /  792.3hPa Calm   -999mph /  -1607.7km/h 91% 0.00in /  0mm
18:20 43.3 °F /  6.3 °C 40 °F /  4.4 °C 23.40in /  792.3hPa Calm   -999mph /  -1607.7km/h 88% 0.00in /  0mm
18:36 42.8 °F /  6 °C 39.5 °F /  4.2 °C 23.40in /  792.3hPa Calm   -999mph /  -1607.7km/h 88% 0.00in /  0mm
18:51 42.6 °F /  5.9 °C 39.6 °F /  4.2 °C 23.40in /  792.3hPa Calm   -999mph /  -1607.7km/h 89% 0.00in /  0mm
19:06 40.1 °F /  4.5 °C 37.4 °F /  3 °C 23.40in /  792.3hPa Calm   -999mph /  -1607.7km/h 90% 0.00in /  0mm
19:22 38.7 °F /  3.7 °C 36.9 °F /  2.7 °C 23.40in /  792.3hPa Calm   -999mph /  -1607.7km/h 93% 0.00in /  0mm
19:37 37.8 °F /  3.2 °C 36.2 °F /  2.3 °C 23.40in /  792.3hPa Calm   -999mph /  -1607.7km/h 94% 0.00in /  0mm
19:52 37.2 °F /  2.9 °C 35.9 °F /  2.2 °C 23.40in /  792.3hPa Calm   -999mph /  -1607.7km/h 95% 0.00in /  0mm
20:07 36.5 °F /  2.5 °C 35.7 °F /  2.1 °C 23.41in /  792.7hPa Calm   -999mph /  -1607.7km/h 97% 0.00in /  0mm
20:22 36.3 °F /  2.4 °C 35.5 °F /  1.9 °C 23.41in /  792.7hPa Calm   -999mph /  -1607.7km/h 97% 0.00in /  0mm
20:38 36 °F /  2.2 °C 35.2 °F /  1.8 °C 23.41in /  792.7hPa Calm   -999mph /  -1607.7km/h 97% 0.00in /  0mm
20:53 35.8 °F /  2.1 °C 35.3 °F /  1.8 °C 23.42in /  793hPa Calm   -999mph /  -1607.7km/h 98% 0.00in /  0mm
21:08 35.2 °F /  1.8 °C 34.7 °F /  1.5 °C 23.42in /  793hPa Calm   -999mph /  -1607.7km/h 98% 0.00in /  0mm
21:23 34.7 °F /  1.5 °C 34.2 °F /  1.2 °C 23.42in /  793hPa Calm   -999mph /  -1607.7km/h 98% 0.00in /  0mm
21:38 34.3 °F /  1.3 °C 33.8 °F /  1 °C 23.42in /  793hPa Calm   -999mph /  -1607.7km/h 98% 0.00in /  0mm
21:54 34 °F /  1.1 °C 33.5 °F /  0.8 °C 23.43in /  793.3hPa Calm   -999mph /  -1607.7km/h 98% 0.00in /  0mm
22:09 34.3 °F /  1.3 °C 34 °F /  1.1 °C 23.43in /  793.3hPa Calm   -999mph /  -1607.7km/h 99% 0.00in /  0mm
22:24 34.7 °F /  1.5 °C 34.4 °F /  1.3 °C 23.43in /  793.3hPa Calm   -999mph /  -1607.7km/h 99% 0.00in /  0mm
22:39 34.7 °F /  1.5 °C 34.4 °F /  1.3 °C 23.43in /  793.3hPa Calm   -999mph /  -1607.7km/h 99% 0.00in /  0mm
22:54 34.9 °F /  1.6 °C 34.6 °F /  1.4 °C 23.43in /  793.3hPa Calm   -999mph /  -1607.7km/h 99% 0.00in /  0mm
23:10 34.7 °F /  1.5 °C 34.4 °F /  1.3 °C 23.43in /  793.3hPa Calm   -999mph /  -1607.7km/h 99% 0.00in /  0mm
23:25 34.2 °F /  1.2 °C 33.9 °F /  1.1 °C 23.43in /  793.3hPa Calm   -999mph /  -1607.7km/h 99% 0.00in /  0mm
23:40 33.3 °F /  0.7 °C 33 °F /  0.6 °C 23.44in /  793.7hPa Calm   -999mph /  -1607.7km/h 99% 0.00in /  0mm
23:55 32.5 °F /  0.3 °C 32.3 °F /  0.2 °C 23.43in /  793.3hPa Calm   -999mph /  -1607.7km/h 99% 0.00in /  0mm
Big Bear CA Weather